sensor_id;sensor_type;location;lat;lon;timestamp;pressure;altitude;pressure_sealevel;temperature;humidity
1726;BME280;41776;48.260;8.928;2023-01-16T00:00:11;52674.13;;;-145.69;100.00
1726;BME280;41776;48.260;8.928;2023-01-16T00:02:39;52632.53;;;-145.69;100.00
1726;BME280;41776;48.260;8.928;2023-01-16T00:05:06;52674.13;;;-145.69;100.00
1726;BME280;41776;48.260;8.928;2023-01-16T00:07:33;52646.41;;;-145.69;100.00
1726;BME280;41776;48.260;8.928;2023-01-16T00:09:59;52634.50;;;-145.69;100.00
1726;BME280;41776;48.260;8.928;2023-01-16T00:12:26;52618.66;;;-145.69;100.00
1726;BME280;41776;48.260;8.928;2023-01-16T00:14:52;52660.25;;;-145.69;100.00
1726;BME280;41776;48.260;8.928;2023-01-16T00:17:19;52654.31;;;-145.69;100.00
1726;BME280;41776;48.260;8.928;2023-01-16T00:19:46;52670.16;;;-145.69;100.00
1726;BME280;41776;48.260;8.928;2023-01-16T00:22:13;52648.38;;;-145.69;100.00
1726;BME280;41776;48.260;8.928;2023-01-16T00:24:39;52632.53;;;-145.69;100.00
1726;BME280;41776;48.260;8.928;2023-01-16T00:27:06;52618.66;;;-145.69;100.00
1726;BME280;41776;48.260;8.928;2023-01-16T00:29:32;52628.56;;;-145.69;100.00
1726;BME280;41776;48.260;8.928;2023-01-16T00:32:00;52682.03;;;-145.69;100.00
1726;BME280;41776;48.260;8.928;2023-01-16T00:34:26;52630.53;;;-145.69;100.00
1726;BME280;41776;48.260;8.928;2023-01-16T00:36:54;52662.22;;;-145.69;100.00
1726;BME280;41776;48.260;8.928;2023-01-16T00:39:21;52618.66;;;-145.69;100.00
1726;BME280;41776;48.260;8.928;2023-01-16T00:41:47;52632.53;;;-145.69;100.00
1726;BME280;41776;48.260;8.928;2023-01-16T00:44:14;52596.88;;;-145.69;100.00
1726;BME280;41776;48.260;8.928;2023-01-16T00:46:41;52664.22;;;-145.69;100.00
1726;BME280;41776;48.260;8.928;2023-01-16T00:49:07;52628.56;;;-145.69;100.00
1726;BME280;41776;48.260;8.928;2023-01-16T00:51:34;52632.53;;;-145.69;100.00
1726;BME280;41776;48.260;8.928;2023-01-16T00:54:02;52610.75;;;-145.69;100.00
1726;BME280;41776;48.260;8.928;2023-01-16T00:56:28;52616.69;;;-145.69;100.00
1726;BME280;41776;48.260;8.928;2023-01-16T00:58:55;52594.91;;;-145.69;100.00
1726;BME280;41776;48.260;8.928;2023-01-16T01:01:21;52654.31;;;-145.69;100.00
1726;BME280;41776;48.260;8.928;2023-01-16T01:03:48;52622.63;;;-145.69;100.00
1726;BME280;41776;48.260;8.928;2023-01-16T01:06:14;52622.63;;;-145.69;100.00
1726;BME280;41776;48.260;8.928;2023-01-16T01:08:40;52678.09;;;-145.69;100.00
1726;BME280;41776;48.260;8.928;2023-01-16T01:11:10;52594.91;;;-145.69;100.00
1726;BME280;41776;48.260;8.928;2023-01-16T01:13:38;52656.28;;;-145.69;100.00
1726;BME280;41776;48.260;8.928;2023-01-16T01:16:05;52626.59;;;-145.69;100.00
1726;BME280;41776;48.260;8.928;2023-01-16T01:18:32;52638.47;;;-145.69;100.00
1726;BME280;41776;48.260;8.928;2023-01-16T01:20:59;52626.59;;;-145.69;100.00
1726;BME280;41776;48.260;8.928;2023-01-16T01:23:25;52658.28;;;-145.69;100.00
1726;BME280;41776;48.260;8.928;2023-01-16T01:25:52;52626.59;;;-145.69;100.00
1726;BME280;41776;48.260;8.928;2023-01-16T01:28:20;52602.81;;;-145.69;100.00
1726;BME280;41776;48.260;8.928;2023-01-16T01:30:46;52622.63;;;-145.69;100.00
1726;BME280;41776;48.260;8.928;2023-01-16T01:33:13;52612.72;;;-145.69;100.00
1726;BME280;41776;48.260;8.928;2023-01-16T01:35:39;52632.53;;;-145.69;100.00
1726;BME280;41776;48.260;8.928;2023-01-16T01:38:06;52604.81;;;-145.69;100.00
1726;BME280;41776;48.260;8.928;2023-01-16T01:40:33;52634.50;;;-145.69;100.00
1726;BME280;41776;48.260;8.928;2023-01-16T01:42:59;52634.50;;;-145.69;100.00
1726;BME280;41776;48.260;8.928;2023-01-16T01:45:29;52634.50;;;-145.69;100.00
1726;BME280;41776;48.260;8.928;2023-01-16T01:48:00;52628.56;;;-145.69;100.00
1726;BME280;41776;48.260;8.928;2023-01-16T01:50:36;52650.34;;;-145.69;100.00
1726;BME280;41776;48.260;8.928;2023-01-16T01:53:08;52634.50;;;-145.69;100.00
1726;BME280;41776;48.260;8.928;2023-01-16T01:55:39;52630.53;;;-145.69;100.00
1726;BME280;41776;48.260;8.928;2023-01-16T01:58:07;52628.56;;;-145.69;100.00
1726;BME280;41776;48.260;8.928;2023-01-16T02:00:35;52622.63;;;-145.69;100.00
1726;BME280;41776;48.260;8.928;2023-01-16T02:03:05;52650.34;;;-145.69;100.00
1726;BME280;41776;48.260;8.928;2023-01-16T02:05:35;52614.72;;;-145.69;100.00
1726;BME280;41776;48.260;8.928;2023-01-16T02:08:04;52640.44;;;-145.69;100.00
1726;BME280;41776;48.260;8.928;2023-01-16T02:10:36;52608.75;;;-145.69;100.00
1726;BME280;41776;48.260;8.928;2023-01-16T02:13:04;52614.72;;;-145.69;100.00
1726;BME280;41776;48.260;8.928;2023-01-16T02:15:30;52638.47;;;-145.69;100.00
1726;BME280;41776;48.260;8.928;2023-01-16T02:17:58;52664.22;;;-145.69;100.00
1726;BME280;41776;48.260;8.928;2023-01-16T02:20:53;52628.56;;;-145.69;100.00
1726;BME280;41776;48.260;8.928;2023-01-16T02:26:46;52632.53;;;-145.69;100.00
1726;BME280;41776;48.260;8.928;2023-01-16T02:29:42;52652.34;;;-145.69;100.00
1726;BME280;41776;48.260;8.928;2023-01-16T02:32:25;52618.66;;;-145.69;100.00
1726;BME280;41776;48.260;8.928;2023-01-16T02:35:09;52626.59;;;-145.69;100.00
1726;BME280;41776;48.260;8.928;2023-01-16T02:37:45;52666.19;;;-145.69;100.00
1726;BME280;41776;48.260;8.928;2023-01-16T02:40:24;52632.53;;;-145.69;100.00
1726;BME280;41776;48.260;8.928;2023-01-16T02:43:05;52650.34;;;-145.69;100.00
1726;BME280;41776;48.260;8.928;2023-01-16T02:45:41;52642.44;;;-145.69;100.00
1726;BME280;41776;48.260;8.928;2023-01-16T02:48:12;52636.50;;;-145.69;100.00
1726;BME280;41776;48.260;8.928;2023-01-16T02:50:48;52654.31;;;-145.69;100.00
1726;BME280;41776;48.260;8.928;2023-01-16T02:53:21;52583.00;;;-145.69;100.00
1726;BME280;41776;48.260;8.928;2023-01-16T02:55:52;52614.72;;;-145.69;100.00
1726;BME280;41776;48.260;8.928;2023-01-16T02:58:20;52606.78;;;-145.69;100.00
1726;BME280;41776;48.260;8.928;2023-01-16T03:00:52;52614.72;;;-145.69;100.00
1726;BME280;41776;48.260;8.928;2023-01-16T03:03:38;52622.63;;;-145.69;100.00
1726;BME280;41776;48.260;8.928;2023-01-16T03:09:02;52626.59;;;-145.69;100.00
1726;BME280;41776;48.260;8.928;2023-01-16T03:11:37;52636.50;;;-145.69;100.00
1726;BME280;41776;48.260;8.928;2023-01-16T03:14:19;52634.50;;;-145.69;100.00
1726;BME280;41776;48.260;8.928;2023-01-16T03:16:59;52630.53;;;-145.69;100.00
1726;BME280;41776;48.260;8.928;2023-01-16T03:19:41;52616.69;;;-145.69;100.00
1726;BME280;41776;48.260;8.928;2023-01-16T03:22:13;52638.47;;;-145.69;100.00
1726;BME280;41776;48.260;8.928;2023-01-16T03:24:57;52650.34;;;-145.69;100.00
1726;BME280;41776;48.260;8.928;2023-01-16T03:27:33;52628.56;;;-145.69;100.00
1726;BME280;41776;48.260;8.928;2023-01-16T03:30:10;52594.91;;;-145.69;100.00
1726;BME280;41776;48.260;8.928;2023-01-16T03:32:43;52632.53;;;-145.69;100.00
1726;BME280;41776;48.260;8.928;2023-01-16T03:35:17;52646.41;;;-145.69;100.00
1726;BME280;41776;48.260;8.928;2023-01-16T03:37:47;52602.81;;;-145.69;100.00
1726;BME280;41776;48.260;8.928;2023-01-16T03:40:20;52642.44;;;-145.69;100.00
1726;BME280;41776;48.260;8.928;2023-01-16T03:42:51;52622.63;;;-145.69;100.00
1726;BME280;41776;48.260;8.928;2023-01-16T03:45:21;52626.59;;;-145.69;100.00
1726;BME280;41776;48.260;8.928;2023-01-16T03:47:52;52626.59;;;-145.69;100.00
1726;BME280;41776;48.260;8.928;2023-01-16T03:50:23;52642.44;;;-145.69;100.00
1726;BME280;41776;48.260;8.928;2023-01-16T03:52:57;52630.53;;;-145.69;100.00
1726;BME280;41776;48.260;8.928;2023-01-16T03:55:30;52666.19;;;-145.69;100.00
1726;BME280;41776;48.260;8.928;2023-01-16T03:58:00;52618.66;;;-145.69;100.00
1726;BME280;41776;48.260;8.928;2023-01-16T04:00:37;52598.84;;;-145.69;100.00
1726;BME280;41776;48.260;8.928;2023-01-16T04:03:09;52646.41;;;-145.69;100.00
1726;BME280;41776;48.260;8.928;2023-01-16T04:05:48;52598.84;;;-145.69;100.00
1726;BME280;41776;48.260;8.928;2023-01-16T04:08:22;52642.44;;;-145.69;100.00
1726;BME280;41776;48.260;8.928;2023-01-16T04:10:52;52606.78;;;-145.69;100.00
1726;BME280;41776;48.260;8.928;2023-01-16T04:13:22;52618.66;;;-145.69;100.00
1726;BME280;41776;48.260;8.928;2023-01-16T04:15:56;52626.59;;;-145.69;100.00
1726;BME280;41776;48.260;8.928;2023-01-16T04:18:26;52624.59;;;-145.69;100.00
1726;BME280;41776;48.260;8.928;2023-01-16T04:20:55;52630.53;;;-145.69;100.00
1726;BME280;41776;48.260;8.928;2023-01-16T04:23:22;52650.34;;;-145.69;100.00
1726;BME280;41776;48.260;8.928;2023-01-16T04:25:48;52618.66;;;-145.69;100.00
1726;BME280;41776;48.260;8.928;2023-01-16T04:28:18;52636.50;;;-145.69;100.00
1726;BME280;41776;48.260;8.928;2023-01-16T04:30:48;52606.78;;;-145.69;100.00
1726;BME280;41776;48.260;8.928;2023-01-16T04:33:14;52638.47;;;-145.69;100.00
1726;BME280;41776;48.260;8.928;2023-01-16T04:35:41;52646.41;;;-145.69;100.00
1726;BME280;41776;48.260;8.928;2023-01-16T04:38:09;52634.50;;;-145.69;100.00
1726;BME280;41776;48.260;8.928;2023-01-16T04:40:37;52644.41;;;-145.69;100.00
1726;BME280;41776;48.260;8.928;2023-01-16T04:43:03;52642.44;;;-145.69;100.00
1726;BME280;41776;48.260;8.928;2023-01-16T04:45:30;52598.84;;;-145.69;100.00
1726;BME280;41776;48.260;8.928;2023-01-16T04:47:56;52634.50;;;-145.69;100.00
1726;BME280;41776;48.260;8.928;2023-01-16T04:50:23;52674.13;;;-145.69;100.00
1726;BME280;41776;48.260;8.928;2023-01-16T04:52:49;52614.72;;;-145.69;100.00
1726;BME280;41776;48.260;8.928;2023-01-16T04:55:19;52630.53;;;-145.69;100.00
1726;BME280;41776;48.260;8.928;2023-01-16T04:57:46;52606.78;;;-145.69;100.00
1726;BME280;41776;48.260;8.928;2023-01-16T05:00:17;52626.59;;;-145.69;100.00
1726;BME280;41776;48.260;8.928;2023-01-16T05:02:45;52640.44;;;-145.69;100.00
1726;BME280;41776;48.260;8.928;2023-01-16T05:05:12;52632.53;;;-145.69;100.00
1726;BME280;41776;48.260;8.928;2023-01-16T05:07:39;52646.41;;;-145.69;100.00
1726;BME280;41776;48.260;8.928;2023-01-16T05:10:06;52630.53;;;-145.69;100.00
1726;BME280;41776;48.260;8.928;2023-01-16T05:12:34;52646.41;;;-145.69;100.00
1726;BME280;41776;48.260;8.928;2023-01-16T05:15:00;52626.59;;;-145.69;100.00
1726;BME280;41776;48.260;8.928;2023-01-16T05:17:27;52630.53;;;-145.69;100.00
1726;BME280;41776;48.260;8.928;2023-01-16T05:19:56;52606.78;;;-145.69;100.00
1726;BME280;41776;48.260;8.928;2023-01-16T05:22:25;52636.50;;;-145.69;100.00
1726;BME280;41776;48.260;8.928;2023-01-16T05:24:52;52622.63;;;-145.69;100.00
1726;BME280;41776;48.260;8.928;2023-01-16T05:27:19;52648.38;;;-145.69;100.00
1726;BME280;41776;48.260;8.928;2023-01-16T05:29:48;52650.34;;;-145.69;100.00
1726;BME280;41776;48.260;8.928;2023-01-16T05:32:15;52626.59;;;-145.69;100.00
1726;BME280;41776;48.260;8.928;2023-01-16T05:34:41;52678.09;;;-145.69;100.00
1726;BME280;41776;48.260;8.928;2023-01-16T05:37:08;52648.38;;;-145.69;100.00
1726;BME280;41776;48.260;8.928;2023-01-16T05:39:34;52616.69;;;-145.69;100.00
1726;BME280;41776;48.260;8.928;2023-01-16T05:42:01;52642.44;;;-145.69;100.00
1726;BME280;41776;48.260;8.928;2023-01-16T05:44:27;52646.41;;;-145.69;100.00
1726;BME280;41776;48.260;8.928;2023-01-16T05:46:55;52642.44;;;-145.69;100.00
1726;BME280;41776;48.260;8.928;2023-01-16T05:49:22;52636.50;;;-145.69;100.00
1726;BME280;41776;48.260;8.928;2023-01-16T05:51:48;52620.66;;;-145.69;100.00
1726;BME280;41776;48.260;8.928;2023-01-16T05:54:15;52634.50;;;-145.69;100.00
1726;BME280;41776;48.260;8.928;2023-01-16T05:56:41;52642.44;;;-145.69;100.00
1726;BME280;41776;48.260;8.928;2023-01-16T05:59:09;52594.91;;;-145.69;100.00
1726;BME280;41776;48.260;8.928;2023-01-16T06:01:36;52630.53;;;-145.69;100.00
1726;BME280;41776;48.260;8.928;2023-01-16T06:04:04;52596.88;;;-145.69;100.00
1726;BME280;41776;48.260;8.928;2023-01-16T06:06:30;52652.34;;;-145.69;100.00
1726;BME280;41776;48.260;8.928;2023-01-16T06:08:57;52634.50;;;-145.69;100.00
1726;BME280;41776;48.260;8.928;2023-01-16T06:11:23;52646.41;;;-145.69;100.00
1726;BME280;41776;48.260;8.928;2023-01-16T06:13:50;52620.66;;;-145.69;100.00
1726;BME280;41776;48.260;8.928;2023-01-16T06:16:16;52626.59;;;-145.69;100.00
1726;BME280;41776;48.260;8.928;2023-01-16T06:18:45;52620.66;;;-145.69;100.00
1726;BME280;41776;48.260;8.928;2023-01-16T06:21:12;52622.63;;;-145.69;100.00
1726;BME280;41776;48.260;8.928;2023-01-16T06:23:39;52666.19;;;-145.69;100.00
1726;BME280;41776;48.260;8.928;2023-01-16T06:26:08;52628.56;;;-145.69;100.00
1726;BME280;41776;48.260;8.928;2023-01-16T06:28:35;52632.53;;;-145.69;100.00
1726;BME280;41776;48.260;8.928;2023-01-16T06:31:02;52626.59;;;-145.69;100.00
1726;BME280;41776;48.260;8.928;2023-01-16T06:33:31;52656.28;;;-145.69;100.00
1726;BME280;41776;48.260;8.928;2023-01-16T06:36:00;52612.72;;;-145.69;100.00
1726;BME280;41776;48.260;8.928;2023-01-16T06:38:28;52618.66;;;-145.69;100.00
1726;BME280;41776;48.260;8.928;2023-01-16T06:40:57;52634.50;;;-145.69;100.00
1726;BME280;41776;48.260;8.928;2023-01-16T06:43:27;52638.47;;;-145.69;100.00
1726;BME280;41776;48.260;8.928;2023-01-16T06:45:56;52650.34;;;-145.69;100.00
1726;BME280;41776;48.260;8.928;2023-01-16T06:48:23;52642.44;;;-145.69;100.00
1726;BME280;41776;48.260;8.928;2023-01-16T06:50:51;52612.72;;;-145.69;100.00
1726;BME280;41776;48.260;8.928;2023-01-16T06:53:18;52646.41;;;-145.69;100.00
1726;BME280;41776;48.260;8.928;2023-01-16T06:55:45;52624.59;;;-145.69;100.00
1726;BME280;41776;48.260;8.928;2023-01-16T06:58:12;52666.19;;;-145.69;100.00
1726;BME280;41776;48.260;8.928;2023-01-16T07:00:38;52634.50;;;-145.69;100.00
1726;BME280;41776;48.260;8.928;2023-01-16T07:03:05;52658.28;;;-145.69;100.00
1726;BME280;41776;48.260;8.928;2023-01-16T07:05:31;52594.91;;;-145.69;100.00
1726;BME280;41776;48.260;8.928;2023-01-16T07:08:01;52626.59;;;-145.69;100.00
1726;BME280;41776;48.260;8.928;2023-01-16T07:10:28;52618.66;;;-145.69;100.00
1726;BME280;41776;48.260;8.928;2023-01-16T07:12:56;52634.50;;;-145.69;100.00
1726;BME280;41776;48.260;8.928;2023-01-16T07:15:22;52646.41;;;-145.69;100.00
1726;BME280;41776;48.260;8.928;2023-01-16T07:18:10;52606.78;;;-145.69;100.00
1726;BME280;41776;48.260;8.928;2023-01-16T07:20:57;52634.50;;;-145.69;100.00
1726;BME280;41776;48.260;8.928;2023-01-16T07:23:45;52646.41;;;-145.69;100.00
1726;BME280;41776;48.260;8.928;2023-01-16T07:26:13;52614.72;;;-145.69;98.72
1726;BME280;41776;48.260;8.928;2023-01-16T07:28:45;52618.66;;;-145.69;100.00
1726;BME280;41776;48.260;8.928;2023-01-16T07:31:12;52616.69;;;-145.69;99.78
1726;BME280;41776;48.260;8.928;2023-01-16T07:33:39;52634.50;;;-145.69;100.00
1726;BME280;41776;48.260;8.928;2023-01-16T07:36:06;52628.56;;;-145.69;98.30
1726;BME280;41776;48.260;8.928;2023-01-16T07:38:32;52579.06;;;-145.69;96.10
1726;BME280;41776;48.260;8.928;2023-01-16T07:40:59;52630.53;;;-145.69;97.16
1726;BME280;41776;48.260;8.928;2023-01-16T07:43:25;52616.69;;;-145.69;95.16
1726;BME280;41776;48.260;8.928;2023-01-16T07:45:53;52650.34;;;-145.69;97.82
1726;BME280;41776;48.260;8.928;2023-01-16T07:48:23;52610.75;;;-145.69;94.33
1726;BME280;41776;48.260;8.928;2023-01-16T07:50:53;52638.47;;;-145.69;97.00
1726;BME280;41776;48.260;8.928;2023-01-16T07:53:21;52606.78;;;-145.69;96.59
1726;BME280;41776;48.260;8.928;2023-01-16T07:55:52;52606.78;;;-145.69;94.54
1726;BME280;41776;48.260;8.928;2023-01-16T07:58:19;52618.66;;;-145.69;95.87
1726;BME280;41776;48.260;8.928;2023-01-16T08:00:49;52610.75;;;-145.69;97.27
1726;BME280;41776;48.260;8.928;2023-01-16T08:03:19;52638.47;;;-145.69;93.15
1726;BME280;41776;48.260;8.928;2023-01-16T08:05:45;52600.84;;;-145.69;93.36
1726;BME280;41776;48.260;8.928;2023-01-16T08:08:13;52626.59;;;-145.69;93.88
1726;BME280;41776;48.260;8.928;2023-01-16T08:10:40;52630.53;;;-145.69;90.16
1726;BME280;41776;48.260;8.928;2023-01-16T08:13:06;52598.84;;;-145.69;88.95
1726;BME280;41776;48.260;8.928;2023-01-16T08:15:32;52606.78;;;-145.69;89.06
1726;BME280;41776;48.260;8.928;2023-01-16T08:17:59;52614.72;;;-145.69;82.70
1726;BME280;41776;48.260;8.928;2023-01-16T08:20:30;52610.75;;;-145.69;82.27
1726;BME280;41776;48.260;8.928;2023-01-16T08:22:56;52622.63;;;-145.69;81.72
1726;BME280;41776;48.260;8.928;2023-01-16T08:25:24;52614.72;;;-145.69;81.61
1726;BME280;41776;48.260;8.928;2023-01-16T08:27:50;52610.75;;;-145.69;79.73
1726;BME280;41776;48.260;8.928;2023-01-16T08:30:18;52614.72;;;-145.69;80.08
1726;BME280;41776;48.260;8.928;2023-01-16T08:32:51;52626.59;;;-145.69;80.81
1726;BME280;41776;48.260;8.928;2023-01-16T08:35:22;52624.59;;;-145.69;82.23
1726;BME280;41776;48.260;8.928;2023-01-16T08:37:50;52610.75;;;-145.69;80.13
1726;BME280;41776;48.260;8.928;2023-01-16T08:40:17;52614.72;;;-145.69;83.58
1726;BME280;41776;48.260;8.928;2023-01-16T08:42:49;52606.78;;;-145.69;88.30
1726;BME280;41776;48.260;8.928;2023-01-16T08:45:33;52598.84;;;-145.69;80.93
1726;BME280;41776;48.260;8.928;2023-01-16T08:48:21;52581.03;;;-145.69;83.84
1726;BME280;41776;48.260;8.928;2023-01-16T08:51:07;52586.97;;;-145.69;85.63
1726;BME280;41776;48.260;8.928;2023-01-16T08:53:50;52610.75;;;-145.69;81.90
1726;BME280;41776;48.260;8.928;2023-01-16T08:56:21;52586.97;;;-145.69;82.86
1726;BME280;41776;48.260;8.928;2023-01-16T08:58:47;52606.78;;;-145.69;80.55
1726;BME280;41776;48.260;8.928;2023-01-16T09:01:14;52618.66;;;-145.69;78.70
1726;BME280;41776;48.260;8.928;2023-01-16T09:03:41;52590.94;;;-145.69;81.33
1726;BME280;41776;48.260;8.928;2023-01-16T09:06:08;52602.81;;;-145.69;78.11
1726;BME280;41776;48.260;8.928;2023-01-16T09:08:34;52602.81;;;-145.69;79.35
1726;BME280;41776;48.260;8.928;2023-01-16T09:11:02;52602.81;;;-145.69;77.27
1726;BME280;41776;48.260;8.928;2023-01-16T09:13:46;52583.00;;;-145.69;77.64
1726;BME280;41776;48.260;8.928;2023-01-16T09:16:15;52610.75;;;-145.69;74.96
1726;BME280;41776;48.260;8.928;2023-01-16T09:18:44;52583.00;;;-145.69;73.79
1726;BME280;41776;48.260;8.928;2023-01-16T09:21:11;52592.91;;;-145.69;72.94
1726;BME280;41776;48.260;8.928;2023-01-16T09:23:37;52618.66;;;-145.69;82.48
1726;BME280;41776;48.260;8.928;2023-01-16T09:26:05;52581.03;;;-145.69;79.80
1726;BME280;41776;48.260;8.928;2023-01-16T09:28:32;52577.06;;;-145.69;83.53
1726;BME280;41776;48.260;8.928;2023-01-16T09:30:58;52618.66;;;-145.69;81.78
1726;BME280;41776;48.260;8.928;2023-01-16T09:33:25;52583.00;;;-145.69;82.41
1726;BME280;41776;48.260;8.928;2023-01-16T09:35:53;52581.03;;;-145.69;82.07
1726;BME280;41776;48.260;8.928;2023-01-16T09:38:20;52610.75;;;-145.69;82.76
1726;BME280;41776;48.260;8.928;2023-01-16T09:40:51;52588.97;;;-145.69;79.18
1726;BME280;41776;48.260;8.928;2023-01-16T09:43:31;52624.59;;;-145.69;78.87
1726;BME280;41776;48.260;8.928;2023-01-16T09:46:03;52575.09;;;-145.69;77.43
1726;BME280;41776;48.260;8.928;2023-01-16T09:48:31;52563.22;;;-145.69;81.79
1726;BME280;41776;48.260;8.928;2023-01-16T09:51:02;52563.22;;;-145.69;82.79
1726;BME280;41776;48.260;8.928;2023-01-16T09:53:34;52583.00;;;-145.69;83.48
1726;BME280;41776;48.260;8.928;2023-01-16T09:56:24;52577.06;;;-145.69;79.30
1726;BME280;41776;48.260;8.928;2023-01-16T09:59:31;52586.97;;;-145.69;79.75
1726;BME280;41776;48.260;8.928;2023-01-16T10:02:11;52551.31;;;-145.69;81.06
1726;BME280;41776;48.260;8.928;2023-01-16T10:04:40;52563.22;;;-145.69;75.46
1726;BME280;41776;48.260;8.928;2023-01-16T10:07:42;52604.81;;;-145.69;76.30
1726;BME280;41776;48.260;8.928;2023-01-16T10:10:28;52622.63;;;-145.69;80.24
1726;BME280;41776;48.260;8.928;2023-01-16T10:13:08;52585.00;;;-145.69;81.11
1726;BME280;41776;48.260;8.928;2023-01-16T10:15:43;52547.38;;;-145.69;78.66
1726;BME280;41776;48.260;8.928;2023-01-16T10:18:24;52579.06;;;-145.69;80.83
1726;BME280;41776;48.260;8.928;2023-01-16T10:21:16;52575.09;;;-145.69;83.36
1726;BME280;41776;48.260;8.928;2023-01-16T10:23:52;52585.00;;;-145.69;91.66
1726;BME280;41776;48.260;8.928;2023-01-16T10:26:28;52594.91;;;-145.69;90.71
1726;BME280;41776;48.260;8.928;2023-01-16T10:28:59;52590.94;;;-145.69;99.27
1726;BME280;41776;48.260;8.928;2023-01-16T10:31:35;52585.00;;;-145.69;98.15
1726;BME280;41776;48.260;8.928;2023-01-16T10:34:08;52614.72;;;-145.69;100.00
1726;BME280;41776;48.260;8.928;2023-01-16T10:36:39;52590.94;;;-145.69;100.00
1726;BME280;41776;48.260;8.928;2023-01-16T10:39:11;52537.47;;;-145.69;100.00
1726;BME280;41776;48.260;8.928;2023-01-16T10:41:45;52551.31;;;-145.69;100.00
1726;BME280;41776;48.260;8.928;2023-01-16T10:44:32;52596.88;;;-145.69;100.00
1726;BME280;41776;48.260;8.928;2023-01-16T10:47:22;52586.97;;;-145.69;100.00
1726;BME280;41776;48.260;8.928;2023-01-16T10:50:08;52575.09;;;-145.69;100.00
1726;BME280;41776;48.260;8.928;2023-01-16T10:52:37;52585.00;;;-145.69;100.00
1726;BME280;41776;48.260;8.928;2023-01-16T10:55:05;52622.63;;;-145.69;100.00
1726;BME280;41776;48.260;8.928;2023-01-16T10:57:32;52632.53;;;-145.69;100.00
1726;BME280;41776;48.260;8.928;2023-01-16T11:00:05;52604.81;;;-145.69;100.00
1726;BME280;41776;48.260;8.928;2023-01-16T11:02:38;52626.59;;;-145.69;100.00
1726;BME280;41776;48.260;8.928;2023-01-16T11:05:24;52579.06;;;-145.69;100.00
1726;BME280;41776;48.260;8.928;2023-01-16T11:07:52;52579.06;;;-145.69;100.00
1726;BME280;41776;48.260;8.928;2023-01-16T11:10:19;52614.72;;;-145.69;100.00
1726;BME280;41776;48.260;8.928;2023-01-16T11:12:46;52573.13;;;-145.69;100.00
1726;BME280;41776;48.260;8.928;2023-01-16T11:15:33;52610.75;;;-145.69;100.00
1726;BME280;41776;48.260;8.928;2023-01-16T11:18:26;52634.50;;;-145.69;100.00
1726;BME280;41776;48.260;8.928;2023-01-16T11:20:58;52608.75;;;-145.69;100.00
1726;BME280;41776;48.260;8.928;2023-01-16T11:23:32;52630.53;;;-145.69;100.00
1726;BME280;41776;48.260;8.928;2023-01-16T11:26:01;52571.13;;;-145.69;100.00
1726;BME280;41776;48.260;8.928;2023-01-16T11:28:30;52594.91;;;-145.69;100.00
1726;BME280;41776;48.260;8.928;2023-01-16T11:30:59;52634.50;;;-145.69;100.00
1726;BME280;41776;48.260;8.928;2023-01-16T11:33:44;52602.81;;;-145.69;100.00
1726;BME280;41776;48.260;8.928;2023-01-16T11:36:11;52590.94;;;-145.69;100.00
1726;BME280;41776;48.260;8.928;2023-01-16T11:38:44;52594.91;;;-145.69;100.00
1726;BME280;41776;48.260;8.928;2023-01-16T11:41:11;52594.91;;;-145.69;100.00
1726;BME280;41776;48.260;8.928;2023-01-16T11:43:42;52583.00;;;-145.69;100.00
1726;BME280;41776;48.260;8.928;2023-01-16T11:46:32;52590.94;;;-145.69;100.00
1726;BME280;41776;48.260;8.928;2023-01-16T11:49:03;52590.94;;;-145.69;100.00
1726;BME280;41776;48.260;8.928;2023-01-16T11:51:31;52598.84;;;-145.69;100.00
1726;BME280;41776;48.260;8.928;2023-01-16T11:54:00;52606.78;;;-145.69;100.00
1726;BME280;41776;48.260;8.928;2023-01-16T11:56:43;52610.75;;;-145.69;100.00
1726;BME280;41776;48.260;8.928;2023-01-16T11:59:28;52571.13;;;-145.69;100.00
1726;BME280;41776;48.260;8.928;2023-01-16T12:02:05;52628.56;;;-145.69;100.00
1726;BME280;41776;48.260;8.928;2023-01-16T12:04:55;52583.00;;;-145.69;100.00
1726;BME280;41776;48.260;8.928;2023-01-16T12:07:52;52569.16;;;-145.69;100.00
1726;BME280;41776;48.260;8.928;2023-01-16T12:10:34;52606.78;;;-145.69;100.00
1726;BME280;41776;48.260;8.928;2023-01-16T12:13:06;52590.94;;;-145.69;100.00
1726;BME280;41776;48.260;8.928;2023-01-16T12:16:06;52596.88;;;-145.69;100.00
1726;BME280;41776;48.260;8.928;2023-01-16T12:18:58;52561.22;;;-145.69;100.00
1726;BME280;41776;48.260;8.928;2023-01-16T12:21:32;52598.84;;;-145.69;100.00
1726;BME280;41776;48.260;8.928;2023-01-16T12:24:14;52583.00;;;-145.69;100.00
1726;BME280;41776;48.260;8.928;2023-01-16T12:26:52;52569.16;;;-145.69;100.00
1726;BME280;41776;48.260;8.928;2023-01-16T12:29:32;52606.78;;;-145.69;100.00
1726;BME280;41776;48.260;8.928;2023-01-16T12:32:13;52618.66;;;-145.69;100.00
1726;BME280;41776;48.260;8.928;2023-01-16T12:37:50;52579.06;;;-145.69;100.00
1726;BME280;41776;48.260;8.928;2023-01-16T12:40:29;52586.97;;;-145.69;100.00
1726;BME280;41776;48.260;8.928;2023-01-16T12:43:11;52610.75;;;-145.69;100.00
1726;BME280;41776;48.260;8.928;2023-01-16T12:45:52;52602.81;;;-145.69;100.00
1726;BME280;41776;48.260;8.928;2023-01-16T12:48:41;52594.91;;;-145.69;100.00
1726;BME280;41776;48.260;8.928;2023-01-16T12:51:42;52596.88;;;-145.69;100.00
1726;BME280;41776;48.260;8.928;2023-01-16T12:54:35;52620.66;;;-145.69;100.00
1726;BME280;41776;48.260;8.928;2023-01-16T12:57:28;52592.91;;;-145.69;100.00
1726;BME280;41776;48.260;8.928;2023-01-16T13:00:00;52571.13;;;-145.69;100.00
1726;BME280;41776;48.260;8.928;2023-01-16T13:02:32;52559.25;;;-145.69;100.00
1726;BME280;41776;48.260;8.928;2023-01-16T13:05:03;52586.97;;;-145.69;100.00
1726;BME280;41776;48.260;8.928;2023-01-16T13:07:33;52583.00;;;-145.69;100.00
1726;BME280;41776;48.260;8.928;2023-01-16T13:10:10;52590.94;;;-145.69;100.00
1726;BME280;41776;48.260;8.928;2023-01-16T13:12:57;52567.16;;;-145.69;100.00
1726;BME280;41776;48.260;8.928;2023-01-16T13:15:44;52586.97;;;-145.69;100.00